Terminal Aerodrome Forecast
Issued by NWS

Current Version | Previous Version | Graphics & Text | Print | Product List | Glossary On
Versions: 1 2 3 4 5 6 7 8 9 10 11 12 13 14 15
000
FTUS41 KPBZ 221122
TAFHLG
TAF
KHLG 221122Z 2212/2312 02011KT P6SM -RA OVC035
     FM221400 02010KT P6SM VCSH OVC040
     FM221800 02011KT P6SM OVC050
     FM230500 04007KT P6SM BKN250=

USA.gov is the U.S. government's official web portal to all federal, state and local government web resources and services.